KEAT/EAT METAR and TAF weather

Enter ICAO airport designator
Station Type Date Time Source
KEAT METAR 2020/09/18 15:55 UTC NOAA

KEAT 181555Z AUTO 00000KT 3SM HZ OVC016 16/09 A2983 RMK AO2 SLP097 T01610094


Station Type Date Time Source
KEAT Decoded METAR 2020/09/18 15:55 UTC NOAA

WENATCHEE PANGBORN MEMO, WA, United States (KEAT) 47-24N 120-12W 377M
Sep 18, 2020 - 11:55 AM EDT / 2020.09.18 1555 UTC
Wind: Calm:0
Visibility: 3 mile(s):0
Sky conditions: overcast
Weather: haze
Temperature: 61.0 F (16.1 C)
Dew Point: 48.9 F (9.4 C)
Relative Humidity: 64%
Pressure (altimeter): 29.83 in. Hg (1010 hPa)
ob: KEAT 181555Z AUTO 00000KT 3SM HZ OVC016 16/09 A2983 RMK AO2 SLP097 T01610094
cycle: 16

Station Type Date Time Source
KEAT TAF 2020/09/18 12:42 UTC NOAA

TAF KEAT 181140Z 1812/1912 27008KT 4SM FU OVC027
FM182000 29008KT 4SM FU BKN050
FM182300 30012G18KT 5SM FU VCSH OVC100 PROB30 1823/1904 2SM -SHRA BR OVC015
FM190400 31010KT 5SM BR BKN120

Example: see airport list